createdAt,value
2022-10-17T00:00:34.875Z,6.80
2022-10-17T00:03:02.163Z,5.97
2022-10-17T00:05:29.060Z,6.88
2022-10-17T00:07:56.062Z,5.72
2022-10-17T00:10:23.005Z,5.72
2022-10-17T00:12:51.732Z,4.53
2022-10-17T00:15:20.041Z,4.50
2022-10-17T00:17:46.938Z,4.13
2022-10-17T00:20:14.836Z,4.95
2022-10-17T00:22:41.785Z,4.32
2022-10-17T00:25:09.295Z,4.07
2022-10-17T00:27:37.852Z,3.88
2022-10-17T00:30:06.266Z,4.20
2022-10-17T00:32:33.465Z,3.97
2022-10-17T00:35:00.503Z,3.53
2022-10-17T00:37:27.495Z,2.97
2022-10-17T00:39:54.551Z,3.25
2022-10-17T00:42:21.759Z,3.15
2022-10-17T00:44:48.623Z,3.42
2022-10-17T00:47:19.677Z,3.00
2022-10-17T00:49:47.485Z,2.60
2022-10-17T00:52:26.961Z,2.53
2022-10-17T00:55:02.522Z,2.33
2022-10-17T00:57:31.731Z,2.85
2022-10-17T01:00:00.774Z,2.40
2022-10-17T01:02:27.969Z,2.42
2022-10-17T01:04:59.550Z,2.20
2022-10-17T01:07:31.914Z,2.15
2022-10-17T01:10:02.255Z,1.88
2022-10-17T01:12:37.864Z,1.90
2022-10-17T01:15:33.496Z,1.80
2022-10-17T01:18:27.426Z,1.85
2022-10-17T01:21:05.562Z,1.77
2022-10-17T01:23:50.274Z,2.22
2022-10-17T01:26:47.942Z,2.15
2022-10-17T01:29:33.390Z,1.70
2022-10-17T01:32:14.072Z,1.77
2022-10-17T01:34:59.666Z,2.10
2022-10-17T01:37:29.313Z,1.65
2022-10-17T01:40:30.096Z,2.35
2022-10-17T01:43:03.958Z,2.47
2022-10-17T01:45:42.981Z,1.98
2022-10-17T01:48:17.636Z,2.13
2022-10-17T01:50:56.969Z,1.75
2022-10-17T01:53:33.269Z,2.22
2022-10-17T01:56:03.209Z,2.30
2022-10-17T01:58:42.291Z,2.50
2022-10-17T02:01:11.938Z,2.25
2022-10-17T02:03:41.136Z,1.83
2022-10-17T02:06:08.069Z,2.30
2022-10-17T02:08:46.848Z,2.45
2022-10-17T02:11:18.584Z,2.15
2022-10-17T02:14:03.497Z,2.42
2022-10-17T02:16:40.808Z,2.30
2022-10-17T02:19:50.498Z,2.25
2022-10-17T02:22:40.136Z,1.95
2022-10-17T02:25:06.966Z,2.40
2022-10-17T02:27:55.981Z,2.03
2022-10-17T02:30:40.597Z,2.58
2022-10-17T02:33:16.762Z,1.73
2022-10-17T02:35:54.822Z,2.75
2022-10-17T02:38:23.090Z,2.25
2022-10-17T02:40:53.084Z,1.92
2022-10-17T02:43:20.687Z,1.85
2022-10-17T02:45:48.775Z,2.55
2022-10-17T02:48:40.441Z,2.53
2022-10-17T02:51:37.089Z,2.33
2022-10-17T02:54:24.281Z,2.15
2022-10-17T02:56:55.616Z,2.78
2022-10-17T02:59:24.996Z,2.53
2022-10-17T03:01:52.636Z,2.55
2022-10-17T03:04:19.934Z,2.00
2022-10-17T03:06:48.357Z,2.33
2022-10-17T03:09:15.884Z,2.45
2022-10-17T03:11:42.817Z,2.15
2022-10-17T03:14:09.798Z,2.00
2022-10-17T03:16:36.721Z,2.25
2022-10-17T03:19:03.871Z,2.40
2022-10-17T03:21:30.868Z,1.80
2022-10-17T03:23:57.765Z,2.28
2022-10-17T03:26:24.732Z,1.95
2022-10-17T03:28:53.692Z,1.77
2022-10-17T03:31:22.313Z,2.38
2022-10-17T03:33:49.194Z,2.28
2022-10-17T03:36:18.445Z,2.47
2022-10-17T03:38:45.462Z,2.05
2022-10-17T03:41:12.764Z,2.30
2022-10-17T03:43:39.997Z,2.28
2022-10-17T03:46:07.561Z,2.00
2022-10-17T03:48:34.711Z,2.30
2022-10-17T03:51:02.547Z,2.58
2022-10-17T03:53:29.479Z,2.00
2022-10-17T03:55:56.971Z,2.50
2022-10-17T03:58:23.935Z,2.22
2022-10-17T04:00:50.949Z,2.33
2022-10-17T04:03:17.891Z,2.70
2022-10-17T04:05:44.782Z,2.00
2022-10-17T04:08:11.696Z,2.38
2022-10-17T04:10:38.628Z,2.15
2022-10-17T04:13:06.530Z,3.03
2022-10-17T04:15:33.462Z,2.65
2022-10-17T04:18:00.371Z,2.17
2022-10-17T04:20:27.306Z,3.60
2022-10-17T04:22:54.169Z,2.63
2022-10-17T04:25:21.133Z,2.08
2022-10-17T04:27:49.136Z,3.25
2022-10-17T04:30:16.774Z,3.15
2022-10-17T04:32:43.678Z,2.70
2022-10-17T04:35:10.638Z,2.58
2022-10-17T04:37:37.631Z,2.40
2022-10-17T04:40:04.873Z,2.17
2022-10-17T04:42:32.098Z,2.38
2022-10-17T04:44:59.198Z,2.15
2022-10-17T04:47:26.177Z,2.42
2022-10-17T04:49:53.110Z,2.40
2022-10-17T04:52:20.049Z,2.08
2022-10-17T04:54:46.976Z,2.38
2022-10-17T04:57:14.483Z,2.15
2022-10-17T04:59:41.385Z,1.85
2022-10-17T05:02:08.429Z,2.55
2022-10-17T05:04:35.411Z,2.50
2022-10-17T05:07:02.413Z,2.38
2022-10-17T05:09:29.453Z,2.55
2022-10-17T05:11:56.385Z,2.05
2022-10-17T05:14:23.308Z,2.65
2022-10-17T05:16:50.216Z,2.65
2022-10-17T05:19:18.555Z,2.17
2022-10-17T05:21:45.470Z,2.70
2022-10-17T05:24:14.719Z,3.35
2022-10-17T05:26:41.610Z,2.55
2022-10-17T05:29:08.747Z,2.45
2022-10-17T05:31:35.841Z,2.35
2022-10-17T05:34:03.756Z,2.60
2022-10-17T05:36:30.891Z,3.05
2022-10-17T05:38:57.844Z,2.80
2022-10-17T05:41:24.723Z,3.05
2022-10-17T05:43:51.655Z,2.78
2022-10-17T05:46:18.577Z,2.80
2022-10-17T05:48:45.474Z,2.75
2022-10-17T05:51:12.745Z,2.08
2022-10-17T05:53:49.997Z,1.90
2022-10-17T05:56:17.078Z,2.60
2022-10-17T05:58:50.229Z,2.50
2022-10-17T06:01:17.749Z,2.35
2022-10-17T06:03:44.683Z,2.03
2022-10-17T06:06:13.734Z,1.90
2022-10-17T06:08:41.050Z,1.80
2022-10-17T06:11:10.265Z,2.85
2022-10-17T06:13:38.434Z,2.33
2022-10-17T06:16:05.988Z,2.80
2022-10-17T06:18:33.435Z,2.25
2022-10-17T06:21:14.832Z,2.38
2022-10-17T06:23:41.724Z,1.73
2022-10-17T06:26:09.242Z,1.90
2022-10-17T06:28:36.630Z,1.92
2022-10-17T06:31:12.841Z,2.35
2022-10-17T06:33:40.037Z,2.20
2022-10-17T06:36:08.380Z,1.77
2022-10-17T06:38:35.737Z,2.00
2022-10-17T06:41:14.623Z,1.95
2022-10-17T06:43:46.451Z,2.03
2022-10-17T06:46:15.096Z,2.03
2022-10-17T06:48:42.079Z,2.00
2022-10-17T06:51:12.265Z,1.85
2022-10-17T06:53:55.484Z,2.08
2022-10-17T06:56:24.065Z,2.70
2022-10-17T06:58:52.981Z,2.47
2022-10-17T07:01:19.870Z,3.05
2022-10-17T07:03:50.075Z,2.42
2022-10-17T07:06:18.118Z,2.25
2022-10-17T07:08:46.113Z,1.70
2022-10-17T07:11:16.315Z,2.20
2022-10-17T07:13:43.840Z,1.88
2022-10-17T07:16:11.564Z,2.08
2022-10-17T07:18:38.864Z,1.60
2022-10-17T07:21:06.206Z,1.98
2022-10-17T07:23:36.618Z,1.85
2022-10-17T07:26:07.417Z,1.80
2022-10-17T07:28:39.538Z,1.70
2022-10-17T07:31:14.941Z,1.90
2022-10-17T07:33:42.750Z,2.00
2022-10-17T07:36:10.146Z,1.95
2022-10-17T07:38:37.756Z,2.13
2022-10-17T07:41:06.741Z,1.90
2022-10-17T07:43:34.747Z,2.33
2022-10-17T07:46:02.569Z,2.05
2022-10-17T07:48:30.072Z,1.98
2022-10-17T07:50:57.019Z,2.00
2022-10-17T07:53:24.033Z,2.10
2022-10-17T07:55:51.485Z,1.45
2022-10-17T07:58:18.475Z,1.50
2022-10-17T08:00:48.606Z,1.60
2022-10-17T08:03:15.740Z,1.63
2022-10-17T08:05:49.858Z,2.00
2022-10-17T08:08:16.781Z,1.95
2022-10-17T08:10:43.758Z,2.20
2022-10-17T08:13:10.651Z,1.67
2022-10-17T08:15:39.009Z,2.40
2022-10-17T08:18:05.995Z,2.47
2022-10-17T08:20:39.018Z,1.92
2022-10-17T08:23:06.076Z,1.90
2022-10-17T08:25:33.539Z,1.83
2022-10-17T08:28:00.475Z,2.20
2022-10-17T08:30:27.501Z,1.95
2022-10-17T08:32:56.136Z,2.30
2022-10-17T08:35:23.887Z,2.08
2022-10-17T08:37:50.865Z,1.77
2022-10-17T08:40:22.528Z,1.92
2022-10-17T08:43:17.437Z,2.47
2022-10-17T08:46:03.221Z,2.90
2022-10-17T08:48:34.168Z,3.15
2022-10-17T08:53:33.349Z,2.38
2022-10-17T08:56:19.561Z,1.90
2022-10-17T08:58:47.470Z,1.95
2022-10-17T09:01:32.476Z,1.90
2022-10-17T09:04:27.006Z,1.80
2022-10-17T09:07:12.507Z,1.80
2022-10-17T09:10:07.481Z,2.10
2022-10-17T09:12:40.560Z,1.98
2022-10-17T09:15:32.676Z,2.45
2022-10-17T09:18:13.041Z,1.88
2022-10-17T09:20:47.777Z,2.22
2022-10-17T09:23:21.641Z,1.67
2022-10-17T09:25:53.355Z,2.33
2022-10-17T09:28:38.601Z,1.50
2022-10-17T09:31:22.438Z,1.73
2022-10-17T09:33:55.075Z,1.65
2022-10-17T09:36:37.260Z,2.10
2022-10-17T09:39:14.648Z,2.05
2022-10-17T09:44:42.863Z,1.95
2022-10-17T09:47:28.970Z,2.30
2022-10-17T09:49:56.159Z,2.70
2022-10-17T09:52:34.226Z,2.63
2022-10-17T09:55:01.194Z,2.30
2022-10-17T09:57:28.403Z,1.60
2022-10-17T10:00:05.148Z,1.92
2022-10-17T10:02:36.403Z,2.22
2022-10-17T10:05:16.992Z,1.90
2022-10-17T10:08:00.436Z,2.33
2022-10-17T10:10:29.123Z,2.00
2022-10-17T10:13:25.715Z,1.85
2022-10-17T10:15:53.044Z,1.58
2022-10-17T10:18:25.767Z,1.33
2022-10-17T10:21:17.554Z,1.95
2022-10-17T10:24:02.432Z,2.05
2022-10-17T10:26:36.291Z,2.10
2022-10-17T10:29:18.993Z,2.05
2022-10-17T10:31:46.961Z,1.42
2022-10-17T10:34:28.215Z,2.00
2022-10-17T10:37:01.296Z,2.20
2022-10-17T10:39:29.100Z,1.98
2022-10-17T10:41:56.435Z,1.80
2022-10-17T10:44:26.392Z,1.58
2022-10-17T10:47:15.794Z,1.63
2022-10-17T10:49:43.944Z,1.63
2022-10-17T10:52:27.705Z,1.67
2022-10-17T10:55:03.756Z,1.77
2022-10-17T10:57:34.952Z,1.73
2022-10-17T11:00:09.135Z,1.40
2022-10-17T11:02:41.935Z,1.27
2022-10-17T11:05:30.578Z,1.38
2022-10-17T11:08:25.787Z,1.50
2022-10-17T11:11:26.251Z,1.33
2022-10-17T11:14:25.634Z,1.42
2022-10-17T11:17:03.193Z,1.48
2022-10-17T11:19:37.344Z,1.52
2022-10-17T11:22:33.142Z,1.77
2022-10-17T11:25:19.621Z,1.42
2022-10-17T11:27:46.559Z,1.65
2022-10-17T11:30:15.307Z,1.23
2022-10-17T11:32:54.398Z,1.50
2022-10-17T11:35:29.386Z,1.73
2022-10-17T11:38:46.099Z,1.83
2022-10-17T11:41:21.425Z,1.05
2022-10-17T11:43:54.606Z,1.20
2022-10-17T11:46:27.528Z,1.73
2022-10-17T11:49:16.121Z,1.30
2022-10-17T11:52:06.170Z,1.60
2022-10-17T11:54:45.085Z,1.48
2022-10-17T11:57:24.415Z,2.13
2022-10-17T11:59:51.408Z,1.20
2022-10-17T12:02:42.713Z,1.35
2022-10-17T12:05:28.648Z,1.45
2022-10-17T12:08:13.018Z,1.50
2022-10-17T12:10:58.697Z,1.98
2022-10-17T12:13:28.371Z,1.27
2022-10-17T12:15:56.825Z,1.63
2022-10-17T12:18:29.723Z,1.10
2022-10-17T12:21:00.308Z,2.15
2022-10-17T12:23:32.389Z,1.77
2022-10-17T12:26:05.610Z,1.08
2022-10-17T12:28:46.793Z,1.70
2022-10-17T12:31:17.689Z,1.45
2022-10-17T12:33:52.553Z,1.25
2022-10-17T12:36:22.178Z,1.33
2022-10-17T12:38:52.011Z,1.35
2022-10-17T12:41:42.312Z,1.30
2022-10-17T12:44:16.771Z,1.23
2022-10-17T12:46:52.370Z,1.70
2022-10-17T12:49:40.831Z,1.35
2022-10-17T12:52:31.769Z,1.48
2022-10-17T12:55:13.477Z,1.10
2022-10-17T12:58:08.221Z,1.35
2022-10-17T13:01:05.351Z,1.30
2022-10-17T13:03:44.654Z,1.50
2022-10-17T13:06:22.471Z,1.70
2022-10-17T13:09:01.049Z,2.65
2022-10-17T13:11:34.029Z,1.75
2022-10-17T13:14:04.539Z,1.50
2022-10-17T13:16:37.273Z,1.50
2022-10-17T13:19:18.346Z,1.38
2022-10-17T13:24:33.931Z,1.45
2022-10-17T13:27:01.562Z,1.48
2022-10-17T13:29:30.939Z,1.17
2022-10-17T13:32:04.186Z,1.48
2022-10-17T13:34:32.620Z,1.90
2022-10-17T13:37:02.491Z,1.85
2022-10-17T13:39:54.539Z,1.63
2022-10-17T13:42:29.446Z,1.70
2022-10-17T13:44:58.493Z,1.20
2022-10-17T13:47:28.592Z,2.03
2022-10-17T13:49:57.670Z,1.83
2022-10-17T13:52:30.417Z,1.33
2022-10-17T13:55:17.538Z,1.77
2022-10-17T13:57:44.672Z,1.30
2022-10-17T14:00:20.150Z,1.75
2022-10-17T14:02:48.438Z,1.60
2022-10-17T14:05:21.051Z,2.03
2022-10-17T14:08:13.402Z,1.85
2022-10-17T14:10:43.374Z,1.80
2022-10-17T14:13:25.970Z,2.20
2022-10-17T14:15:55.386Z,1.60
2022-10-17T14:18:35.769Z,3.63
2022-10-17T14:21:40.583Z,2.88
2022-10-17T14:24:12.001Z,3.63
2022-10-17T14:26:48.352Z,2.72
2022-10-17T14:29:51.733Z,2.85
2022-10-17T14:32:19.746Z,5.05
2022-10-17T14:34:47.010Z,9.88
2022-10-17T14:37:32.255Z,9.32
2022-10-17T14:40:01.085Z,10.88
2022-10-17T14:42:28.189Z,9.73
2022-10-17T14:44:58.433Z,7.07
2022-10-17T14:47:42.842Z,6.72
2022-10-17T14:50:10.746Z,6.20
2022-10-17T14:52:39.125Z,5.82
2022-10-17T14:55:25.763Z,5.35
2022-10-17T14:57:52.757Z,5.43
2022-10-17T15:00:21.543Z,5.30
2022-10-17T15:02:49.904Z,5.28
2022-10-17T15:05:17.690Z,5.68
2022-10-17T15:07:44.702Z,6.18
2022-10-17T15:10:36.710Z,8.57
2022-10-17T15:13:26.740Z,8.68
2022-10-17T15:15:52.565Z,8.88
2022-10-17T15:18:19.770Z,9.55
2022-10-17T15:20:46.711Z,9.57
2022-10-17T15:23:13.599Z,8.55
2022-10-17T15:25:40.531Z,10.77
2022-10-17T15:28:08.089Z,12.30
2022-10-17T15:30:36.469Z,13.60
2022-10-17T15:33:03.552Z,15.70
2022-10-17T15:35:31.079Z,17.88
2022-10-17T15:37:57.975Z,24.52
2022-10-17T15:40:31.034Z,19.20
2022-10-17T15:42:58.277Z,13.65
2022-10-17T15:45:25.366Z,15.35
2022-10-17T15:50:36.899Z,10.98
2022-10-17T15:53:06.016Z,8.15
2022-10-17T15:55:33.004Z,9.70
2022-10-17T15:57:59.969Z,9.18
2022-10-17T16:00:26.935Z,9.90
2022-10-17T16:02:54.017Z,10.52
2022-10-17T16:05:23.720Z,9.57
2022-10-17T16:07:51.502Z,10.55
2022-10-17T16:10:19.471Z,11.63
2022-10-17T16:12:46.871Z,11.35
2022-10-17T16:15:23.036Z,12.02
2022-10-17T16:17:54.487Z,12.50
2022-10-17T16:20:22.016Z,10.75
2022-10-17T16:22:49.532Z,10.93
2022-10-17T16:25:22.533Z,10.30
2022-10-17T16:27:51.978Z,9.10
2022-10-17T16:30:19.730Z,10.45
2022-10-17T16:32:47.098Z,12.15
2022-10-17T16:35:20.129Z,12.77
2022-10-17T16:37:47.794Z,10.48
2022-10-17T16:40:15.474Z,9.60
2022-10-17T16:42:42.423Z,12.60
2022-10-17T16:45:11.296Z,9.48
2022-10-17T16:47:38.205Z,11.55
2022-10-17T16:50:05.354Z,9.00
2022-10-17T16:52:32.473Z,8.55
2022-10-17T16:54:59.591Z,8.73
2022-10-17T16:57:26.518Z,8.27
2022-10-17T16:59:53.461Z,9.68
2022-10-17T17:02:21.407Z,11.55
2022-10-17T17:04:48.577Z,16.30
2022-10-17T17:07:17.509Z,24.88
2022-10-17T17:09:44.406Z,29.48
2022-10-17T17:12:11.418Z,21.80
2022-10-17T17:14:39.078Z,16.52
2022-10-17T17:17:07.654Z,9.93
2022-10-17T17:19:39.195Z,8.65
2022-10-17T17:22:06.101Z,8.10
2022-10-17T17:24:33.240Z,10.85
2022-10-17T17:27:00.217Z,10.98
2022-10-17T17:29:27.240Z,9.18
2022-10-17T17:31:54.165Z,6.47
2022-10-17T17:34:21.078Z,7.15
2022-10-17T17:36:48.026Z,7.40
2022-10-17T17:39:15.823Z,7.13
2022-10-17T17:41:43.994Z,6.82
2022-10-17T17:44:15.684Z,10.98
2022-10-17T17:46:44.257Z,20.85
2022-10-17T17:49:11.729Z,19.88
2022-10-17T17:51:39.061Z,15.45
2022-10-17T17:54:06.040Z,11.32
2022-10-17T17:56:32.918Z,16.10
2022-10-17T17:59:02.317Z,18.17
2022-10-17T18:01:31.983Z,15.52
2022-10-17T18:03:59.739Z,11.45
2022-10-17T18:06:27.453Z,9.23
2022-10-17T18:08:57.847Z,6.68
2022-10-17T18:11:25.959Z,8.05
2022-10-17T18:14:04.096Z,10.82
2022-10-17T18:16:32.622Z,13.60
2022-10-17T18:19:05.759Z,19.38
2022-10-17T18:21:34.471Z,17.17
2022-10-17T18:24:02.021Z,15.43
2022-10-17T18:26:29.106Z,21.33
2022-10-17T18:28:56.681Z,13.20
2022-10-17T18:31:28.391Z,12.68
2022-10-17T18:33:57.386Z,12.35
2022-10-17T18:36:26.260Z,12.05
2022-10-17T18:38:54.396Z,13.48
2022-10-17T18:41:23.199Z,15.13
2022-10-17T18:43:51.448Z,14.82
2022-10-17T18:46:21.370Z,16.50
2022-10-17T18:48:49.711Z,12.88
2022-10-17T18:51:19.399Z,11.32
2022-10-17T18:53:49.738Z,10.88
2022-10-17T18:56:18.899Z,7.80
2022-10-17T18:58:46.725Z,7.85
2022-10-17T19:01:16.793Z,6.55
2022-10-17T19:03:45.691Z,7.07
2022-10-17T19:06:14.804Z,6.55
2022-10-17T19:08:42.910Z,6.70
2022-10-17T19:11:17.515Z,7.50
2022-10-17T19:16:16.424Z,7.40
2022-10-17T19:18:43.833Z,8.80
2022-10-17T19:21:11.833Z,12.18
2022-10-17T19:23:39.148Z,13.48
2022-10-17T19:26:11.974Z,13.60
2022-10-17T19:28:42.198Z,10.60
2022-10-17T19:31:11.984Z,8.30
2022-10-17T19:33:40.935Z,6.07
2022-10-17T19:36:11.397Z,4.68
2022-10-17T19:38:38.270Z,4.38
2022-10-17T19:41:10.697Z,4.30
2022-10-17T19:43:38.804Z,4.03
2022-10-17T19:46:08.455Z,3.83
2022-10-17T19:48:37.139Z,3.08
2022-10-17T19:51:05.317Z,3.10
2022-10-17T19:53:32.323Z,3.00
2022-10-17T19:55:59.817Z,3.85
2022-10-17T19:58:27.460Z,4.40
2022-10-17T20:00:58.256Z,3.22
2022-10-17T20:03:25.672Z,2.83
2022-10-17T20:05:52.658Z,2.95
2022-10-17T20:08:19.731Z,2.47
2022-10-17T20:10:46.789Z,2.42
2022-10-17T20:13:14.762Z,2.30
2022-10-17T20:15:41.731Z,3.08
2022-10-17T20:18:12.228Z,2.75
2022-10-17T20:20:39.205Z,2.10
2022-10-17T20:23:06.139Z,2.10
2022-10-17T20:25:34.596Z,2.17
2022-10-17T20:28:01.561Z,3.30
2022-10-17T20:30:28.504Z,2.47
2022-10-17T20:32:55.655Z,2.13
2022-10-17T20:35:23.088Z,2.97
2022-10-17T20:37:50.548Z,3.30
2022-10-17T20:40:34.150Z,2.40
2022-10-17T20:43:02.575Z,2.30
2022-10-17T20:45:43.780Z,1.98
2022-10-17T20:48:16.671Z,2.38
2022-10-17T20:50:44.236Z,2.35
2022-10-17T20:56:04.929Z,2.35
2022-10-17T20:58:31.886Z,2.13
2022-10-17T21:00:58.751Z,2.03
2022-10-17T21:03:26.687Z,2.47
2022-10-17T21:05:53.622Z,2.05
2022-10-17T21:08:20.538Z,3.63
2022-10-17T21:10:47.444Z,2.58
2022-10-17T21:13:14.420Z,2.30
2022-10-17T21:15:41.327Z,2.22
2022-10-17T21:18:08.229Z,2.35
2022-10-17T21:20:35.153Z,2.38
2022-10-17T21:23:02.119Z,2.55
2022-10-17T21:25:29.059Z,3.40
2022-10-17T21:27:55.983Z,2.95
2022-10-17T21:30:22.947Z,2.65
2022-10-17T21:32:54.335Z,2.30
2022-10-17T21:35:21.511Z,2.85
2022-10-17T21:37:48.425Z,4.05
2022-10-17T21:40:15.421Z,2.65
2022-10-17T21:42:42.379Z,2.47
2022-10-17T21:45:15.399Z,2.47
2022-10-17T21:47:55.036Z,2.30
2022-10-17T21:50:30.113Z,2.55
2022-10-17T21:52:58.702Z,2.17
2022-10-17T21:55:25.596Z,2.50
2022-10-17T21:57:52.493Z,2.05
2022-10-17T22:00:19.398Z,2.45
2022-10-17T22:02:46.270Z,2.63
2022-10-17T22:05:13.229Z,2.33
2022-10-17T22:07:40.173Z,2.28
2022-10-17T22:10:07.390Z,2.78
2022-10-17T22:12:34.321Z,2.63
2022-10-17T22:15:01.323Z,3.10
2022-10-17T22:17:28.418Z,2.42
2022-10-17T22:19:55.460Z,3.13
2022-10-17T22:22:22.409Z,2.22
2022-10-17T22:24:49.317Z,2.30
2022-10-17T22:27:16.202Z,2.30
2022-10-17T22:29:43.094Z,2.35
2022-10-17T22:32:10.574Z,2.28
2022-10-17T22:34:37.530Z,1.98
2022-10-17T22:37:04.418Z,1.90
2022-10-17T22:39:31.323Z,2.05
2022-10-17T22:41:58.351Z,2.17
2022-10-17T22:44:25.190Z,1.80
2022-10-17T22:46:52.077Z,2.10
2022-10-17T22:49:19.374Z,2.08
2022-10-17T22:51:46.267Z,1.98
2022-10-17T22:54:13.156Z,1.83
2022-10-17T22:56:40.148Z,2.08
2022-10-17T22:59:07.056Z,2.08
2022-10-17T23:01:34.363Z,2.15
2022-10-17T23:04:01.338Z,2.00
2022-10-17T23:06:28.255Z,2.10
2022-10-17T23:08:55.613Z,2.13
2022-10-17T23:11:22.535Z,2.13
2022-10-17T23:13:49.826Z,2.05
2022-10-17T23:16:16.759Z,2.80
2022-10-17T23:18:44.292Z,2.15
2022-10-17T23:21:11.804Z,2.22
2022-10-17T23:23:38.794Z,2.30
2022-10-17T23:26:11.114Z,2.80
2022-10-17T23:28:38.316Z,2.75
2022-10-17T23:31:11.267Z,2.67
2022-10-17T23:33:41.219Z,2.70
2022-10-17T23:36:10.692Z,3.30
2022-10-17T23:38:38.268Z,4.07
2022-10-17T23:41:05.324Z,3.65
2022-10-17T23:43:34.238Z,3.97
2022-10-17T23:46:02.405Z,3.70
2022-10-17T23:48:29.992Z,4.07
2022-10-17T23:50:57.378Z,4.00
2022-10-17T23:53:24.960Z,3.80
2022-10-17T23:55:52.265Z,4.93
2022-10-17T23:58:19.161Z,7.57
